createdAt,value
2019-04-14T00:02:03.352Z,101461.16
2019-04-14T00:04:40.117Z,101458.58
2019-04-14T00:07:12.292Z,101460.23
2019-04-14T00:09:45.299Z,101457.63
2019-04-14T00:12:17.208Z,101458.47
2019-04-14T00:14:49.165Z,101454.96
2019-04-14T00:17:21.523Z,101456.69
2019-04-14T00:19:54.446Z,101457.43
2019-04-14T00:22:28.033Z,101457.92
2019-04-14T00:24:59.723Z,101460.31
2019-04-14T00:27:32.403Z,101465.97
2019-04-14T00:30:05.705Z,101456.38
2019-04-14T00:32:46.571Z,101454.77
2019-04-14T00:35:47.052Z,101453.50
2019-04-14T00:38:32.353Z,101458.08
2019-04-14T00:41:13.779Z,101455.84
2019-04-14T00:44:03.586Z,101459.81
2019-04-14T00:46:58.153Z,101456.19
2019-04-14T00:49:29.418Z,101450.27
2019-04-14T00:52:01.706Z,101450.27
2019-04-14T00:54:33.017Z,101449.80
2019-04-14T00:57:05.158Z,101444.11
2019-04-14T00:59:37.436Z,101440.56
2019-04-14T01:02:09.809Z,101445.03
2019-04-14T01:04:40.976Z,101441.19
2019-04-14T01:07:13.061Z,101438.14
2019-04-14T01:09:44.525Z,101441.03
2019-04-14T01:12:17.445Z,101432.72
2019-04-14T01:14:49.618Z,101437.72
2019-04-14T01:17:22.045Z,101432.83
2019-04-14T01:19:53.447Z,101426.52
2019-04-14T01:22:25.329Z,101435.02
2019-04-14T01:24:57.544Z,101428.71
2019-04-14T01:27:29.917Z,101438.56
2019-04-14T01:30:02.671Z,101438.48
2019-04-14T01:32:35.009Z,101438.06
2019-04-14T01:35:07.791Z,101428.33
2019-04-14T01:37:39.775Z,101435.64
2019-04-14T01:40:12.086Z,101433.75
2019-04-14T01:42:44.199Z,101432.41
2019-04-14T01:45:18.626Z,101434.29
2019-04-14T01:47:51.118Z,101437.33
2019-04-14T01:50:30.956Z,101432.21
2019-04-14T01:53:11.945Z,101439.82
2019-04-14T01:56:12.683Z,101436.82
2019-04-14T01:58:51.231Z,101436.41
2019-04-14T02:01:30.265Z,101435.17
2019-04-14T02:04:02.944Z,101440.17
2019-04-14T02:06:35.564Z,101439.75
2019-04-14T02:09:12.087Z,101437.73
2019-04-14T02:11:44.541Z,101430.38
2019-04-14T02:14:16.857Z,101433.12
2019-04-14T02:16:55.226Z,101433.86
2019-04-14T02:19:24.175Z,101434.43
2019-04-14T02:21:56.380Z,101437.77
2019-04-14T02:24:28.853Z,101433.67
2019-04-14T02:27:01.329Z,101437.09
2019-04-14T02:29:34.291Z,101432.70
2019-04-14T02:32:33.960Z,101432.58
2019-04-14T02:35:13.560Z,101434.48
2019-04-14T02:37:43.325Z,101438.74
2019-04-14T02:42:52.228Z,101441.27
2019-04-14T02:45:32.249Z,101438.99
2019-04-14T02:50:24.491Z,101440.09
2019-04-14T02:53:07.921Z,101444.01
2019-04-14T02:55:34.182Z,101446.16
2019-04-14T02:58:16.275Z,101438.23
2019-04-14T03:00:58.468Z,101440.34
2019-04-14T03:03:16.073Z,101443.72
2019-04-14T03:08:25.239Z,101437.84
2019-04-14T03:10:55.977Z,101448.59
2019-04-14T03:13:29.209Z,101440.61
2019-04-14T03:22:23.761Z,101440.30
2019-04-14T03:24:47.211Z,101442.68
2019-04-14T03:30:58.681Z,101436.75
2019-04-14T03:33:52.562Z,101433.63
2019-04-14T03:40:58.544Z,101437.83
2019-04-14T03:43:38.856Z,101434.23
2019-04-14T03:48:54.056Z,101432.09
2019-04-14T03:51:10.606Z,101436.09
2019-04-14T03:53:54.484Z,101435.08
2019-04-14T03:56:24.564Z,101430.64
2019-04-14T03:58:57.611Z,101438.16
2019-04-14T04:01:30.224Z,101431.16
2019-04-14T04:04:03.238Z,101435.50
2019-04-14T04:06:38.062Z,101433.11
2019-04-14T04:09:12.481Z,101433.53
2019-04-14T04:11:45.529Z,101437.55
2019-04-14T04:14:18.153Z,101438.84
2019-04-14T04:16:57.934Z,101439.45
2019-04-14T04:19:49.180Z,101434.28
2019-04-14T04:22:39.026Z,101441.84
2019-04-14T04:25:20.436Z,101438.89
2019-04-14T04:28:10.192Z,101439.88
2019-04-14T04:30:51.612Z,101447.62
2019-04-14T04:33:43.677Z,101438.80
2019-04-14T04:36:39.982Z,101445.42
2019-04-14T04:39:19.316Z,101443.00
2019-04-14T04:41:51.600Z,101445.19
2019-04-14T04:44:26.926Z,101440.02
2019-04-14T04:46:59.137Z,101436.69
2019-04-14T04:49:31.255Z,101440.15
2019-04-14T04:52:04.102Z,101438.47
2019-04-14T04:54:36.405Z,101442.85
2019-04-14T04:57:08.887Z,101437.33
2019-04-14T04:59:40.930Z,101438.44
2019-04-14T05:02:13.464Z,101437.80
2019-04-14T05:04:46.033Z,101442.23
2019-04-14T05:07:18.793Z,101442.73
2019-04-14T05:10:08.917Z,101444.56
2019-04-14T05:13:05.535Z,101439.80
2019-04-14T05:15:48.979Z,101444.44
2019-04-14T05:18:24.848Z,101444.81
2019-04-14T05:20:55.961Z,101443.05
2019-04-14T05:23:27.886Z,101446.67
2019-04-14T05:26:00.554Z,101453.67
2019-04-14T05:28:33.212Z,101449.45
2019-04-14T05:31:05.448Z,101449.91
2019-04-14T05:33:38.295Z,101450.00
2019-04-14T05:36:10.702Z,101442.28
2019-04-14T05:38:42.856Z,101454.94
2019-04-14T05:41:15.723Z,101455.56
2019-04-14T05:43:53.700Z,101451.52
2019-04-14T05:46:21.480Z,101455.02
2019-04-14T05:48:53.602Z,101455.56
2019-04-14T05:51:26.443Z,101456.41
2019-04-14T05:53:59.646Z,101455.22
2019-04-14T05:56:32.021Z,101459.89
2019-04-14T05:59:05.183Z,101453.12
2019-04-14T06:01:37.082Z,101449.73
2019-04-14T06:04:09.345Z,101454.39
2019-04-14T06:06:41.324Z,101457.47
2019-04-14T06:09:16.382Z,101459.20
2019-04-14T06:11:48.332Z,101462.28
2019-04-14T06:14:20.249Z,101455.19
2019-04-14T06:16:51.443Z,101463.31
2019-04-14T06:19:23.716Z,101465.52
2019-04-14T06:21:55.553Z,101464.20
2019-04-14T06:24:27.553Z,101464.35
2019-04-14T06:26:59.383Z,101460.48
2019-04-14T06:29:31.255Z,101461.08
2019-04-14T06:32:21.956Z,101470.63
2019-04-14T06:35:16.765Z,101468.01
2019-04-14T06:37:58.025Z,101472.51
2019-04-14T06:40:32.764Z,101471.45
2019-04-14T06:43:06.923Z,101472.05
2019-04-14T06:45:38.900Z,101472.36
2019-04-14T06:48:10.236Z,101468.89
2019-04-14T06:50:46.394Z,101470.96
2019-04-14T06:53:18.742Z,101477.25
2019-04-14T06:55:57.110Z,101472.41
2019-04-14T07:03:00.406Z,101470.16
2019-04-14T07:06:01.889Z,101470.15
2019-04-14T07:08:59.402Z,101468.84
2019-04-14T07:11:43.494Z,101474.97
2019-04-14T07:14:57.296Z,101474.63
2019-04-14T07:17:29.393Z,101477.01
2019-04-14T07:20:02.608Z,101482.94
2019-04-14T07:22:34.249Z,101481.14
2019-04-14T07:26:00.622Z,101473.40
2019-04-14T07:28:40.463Z,101477.09
2019-04-14T07:31:36.541Z,101486.16
2019-04-14T07:34:36.366Z,101485.02
2019-04-14T07:37:20.225Z,101480.34
2019-04-14T07:40:05.481Z,101479.78
2019-04-14T07:42:46.949Z,101473.69
2019-04-14T07:45:33.345Z,101480.22
2019-04-14T07:48:20.200Z,101485.84
2019-04-14T07:51:11.112Z,101490.55
2019-04-14T07:54:04.788Z,101481.98
2019-04-14T07:56:55.096Z,101479.83
2019-04-14T07:59:51.097Z,101491.75
2019-04-14T08:02:40.055Z,101489.75
2019-04-14T08:05:15.654Z,101493.20
2019-04-14T08:07:47.503Z,101498.67
2019-04-14T08:10:19.625Z,101496.55
2019-04-14T08:12:51.775Z,101496.25
2019-04-14T08:15:23.920Z,101497.11
2019-04-14T08:17:55.918Z,101498.50
2019-04-14T08:20:28.167Z,101499.27
2019-04-14T08:23:00.189Z,101503.66
2019-04-14T08:25:32.158Z,101504.57
2019-04-14T08:28:04.076Z,101505.34
2019-04-14T08:30:36.048Z,101516.94
2019-04-14T08:33:07.352Z,101516.55
2019-04-14T08:35:38.682Z,101523.25
2019-04-14T08:38:09.985Z,101530.41
2019-04-14T08:40:41.280Z,101526.02
2019-04-14T08:43:47.884Z,101528.04
2019-04-14T08:46:36.970Z,101524.97
2019-04-14T08:49:35.345Z,101523.96
2019-04-14T08:52:29.949Z,101526.24
2019-04-14T08:55:20.805Z,101533.34
2019-04-14T08:58:06.761Z,101526.04
2019-04-14T09:01:10.283Z,101538.34
2019-04-14T09:04:18.099Z,101534.05
2019-04-14T09:06:54.180Z,101528.98
2019-04-14T09:09:28.472Z,101533.66
2019-04-14T09:12:15.336Z,101531.25
2019-04-14T09:14:39.118Z,101522.50
2019-04-14T09:17:10.934Z,101525.08
2019-04-14T09:19:43.917Z,101531.13
2019-04-14T09:22:15.879Z,101536.73
2019-04-14T09:24:47.872Z,101532.88
2019-04-14T09:27:19.812Z,101535.63
2019-04-14T09:29:52.506Z,101534.46
2019-04-14T09:32:24.694Z,101533.88
2019-04-14T09:34:56.904Z,101530.70
2019-04-14T09:37:28.937Z,101535.88
2019-04-14T09:40:10.833Z,101539.95
2019-04-14T09:42:59.550Z,101536.60
2019-04-14T09:45:43.964Z,101540.30
2019-04-14T09:48:52.936Z,101541.86
2019-04-14T09:51:43.362Z,101535.58
2019-04-14T09:55:04.350Z,101543.59
2019-04-14T09:57:42.574Z,101534.13
2019-04-14T10:03:44.932Z,101537.17
2019-04-14T10:06:22.390Z,101540.57
2019-04-14T10:09:32.887Z,101546.76
2019-04-14T10:12:11.614Z,101547.55
2019-04-14T10:15:24.640Z,101549.09
2019-04-14T10:18:04.102Z,101545.32
2019-04-14T10:20:37.987Z,101538.81
2019-04-14T10:23:10.291Z,101543.10
2019-04-14T10:25:43.875Z,101540.84
2019-04-14T10:28:16.023Z,101543.49
2019-04-14T10:30:48.995Z,101535.55
2019-04-14T10:33:21.566Z,101542.05
2019-04-14T10:36:01.743Z,101536.94
2019-04-14T10:44:21.015Z,101537.32
2019-04-14T10:46:07.378Z,101527.25
2019-04-14T10:48:40.567Z,101531.89
2019-04-14T10:51:32.532Z,101528.71
2019-04-14T10:54:03.288Z,101519.66
2019-04-14T10:56:36.906Z,101517.17
2019-04-14T10:59:14.620Z,101510.38
2019-04-14T11:01:48.309Z,101504.22
2019-04-14T11:04:19.716Z,101507.27
2019-04-14T11:07:03.917Z,101499.92
2019-04-14T11:09:36.057Z,101499.91
2019-04-14T11:12:07.427Z,101501.25
2019-04-14T11:14:39.332Z,101511.37
2019-04-14T11:17:10.601Z,101496.84
2019-04-14T11:19:42.447Z,101494.63
2019-04-14T11:22:14.411Z,101493.66
2019-04-14T11:24:45.605Z,101493.10
2019-04-14T11:27:19.527Z,101506.50
2019-04-14T11:29:53.903Z,101503.02
2019-04-14T11:32:49.824Z,101515.34
2019-04-14T11:35:27.489Z,101495.08
2019-04-14T11:38:17.147Z,101511.37
2019-04-14T11:40:50.717Z,101493.67
2019-04-14T11:43:21.942Z,101491.91
2019-04-14T11:45:56.206Z,101485.77
2019-04-14T11:48:28.297Z,101493.30
2019-04-14T11:51:00.478Z,101479.58
2019-04-14T11:53:33.684Z,101483.11
2019-04-14T11:56:08.060Z,101483.77
2019-04-14T11:58:40.099Z,101504.09
2019-04-14T12:01:24.771Z,101494.14
2019-04-14T12:04:02.871Z,101492.81
2019-04-14T12:06:56.194Z,101489.64
2019-04-14T12:09:36.432Z,101509.38
2019-04-14T12:12:09.620Z,101497.22
2019-04-14T12:14:40.895Z,101496.12
2019-04-14T12:17:12.244Z,101500.25
2019-04-14T12:19:44.390Z,101498.27
2019-04-14T12:22:16.700Z,101496.01
2019-04-14T12:24:49.627Z,101504.76
2019-04-14T12:27:21.831Z,101496.72
2019-04-14T12:29:54.394Z,101497.87
2019-04-14T12:32:26.982Z,101492.39
2019-04-14T13:46:43.493Z,101450.58
2019-04-14T13:49:15.417Z,101458.07
2019-04-14T13:51:47.360Z,101457.83
2019-04-14T13:54:20.540Z,101470.09
2019-04-14T13:56:52.279Z,101462.55
2019-04-14T13:59:25.469Z,101459.70
2019-04-14T14:01:57.371Z,101465.13
2019-04-14T14:04:32.303Z,101457.64
2019-04-14T14:07:15.509Z,101456.27
2019-04-14T14:09:56.943Z,101466.91
2019-04-14T14:12:40.162Z,101466.63
2019-04-14T14:15:39.610Z,101462.18
2019-04-14T14:18:40.325Z,101462.98
2019-04-14T14:21:39.587Z,101452.26
2019-04-14T14:24:33.129Z,101451.70
2019-04-14T14:27:16.782Z,101451.34
2019-04-14T14:29:44.467Z,101452.03
2019-04-14T14:32:35.123Z,101457.84
2019-04-14T14:35:06.858Z,101454.54
2019-04-14T14:37:38.742Z,101470.60
2019-04-14T14:40:10.872Z,101462.15
2019-04-14T14:42:42.162Z,101462.10
2019-04-14T14:45:34.813Z,101459.75
2019-04-14T14:48:25.191Z,101462.96
2019-04-14T14:51:02.521Z,101462.17
2019-04-14T14:54:14.743Z,101457.63
2019-04-14T14:56:48.577Z,101456.03
2019-04-14T14:59:20.833Z,101464.03
2019-04-14T15:01:52.283Z,101480.38
2019-04-14T15:04:24.325Z,101459.18
2019-04-14T15:06:55.705Z,101467.99
2019-04-14T15:09:26.861Z,101457.14
2019-04-14T15:11:58.179Z,101455.58
2019-04-14T15:14:29.399Z,101462.20
2019-04-14T15:17:01.381Z,101462.43
2019-04-14T15:19:32.963Z,101456.91
2019-04-14T15:22:04.849Z,101454.61
2019-04-14T15:24:37.189Z,101449.88
2019-04-14T15:27:08.515Z,101449.23
2019-04-14T15:29:40.264Z,101455.31
2019-04-14T15:32:12.261Z,101462.05
2019-04-14T15:34:43.693Z,101459.26
2019-04-14T15:37:14.879Z,101457.88
2019-04-14T15:39:47.545Z,101457.65
2019-04-14T15:42:19.484Z,101457.40
2019-04-14T15:44:51.758Z,101463.78
2019-04-14T15:47:22.974Z,101459.30
2019-04-14T15:49:55.252Z,101464.05
2019-04-14T15:52:28.093Z,101467.56
2019-04-14T15:55:00.017Z,101458.17
2019-04-14T15:57:53.253Z,101477.27
2019-04-14T16:00:45.327Z,101476.45
2019-04-14T16:03:34.262Z,101481.55
2019-04-14T16:06:38.262Z,101471.17
2019-04-14T16:09:32.256Z,101483.29
2019-04-14T16:12:22.653Z,101483.90
2019-04-14T16:15:11.597Z,101489.14
2019-04-14T16:17:51.858Z,101491.63
2019-04-14T16:20:26.663Z,101484.63
2019-04-14T16:22:57.888Z,101493.55
2019-04-14T16:25:54.771Z,101491.19
2019-04-14T16:29:02.614Z,101495.36
2019-04-14T16:31:49.799Z,101495.48
2019-04-14T16:34:24.541Z,101495.65
2019-04-14T16:36:58.638Z,101491.70
2019-04-14T16:39:29.930Z,101498.53
2019-04-14T16:42:01.103Z,101496.03
2019-04-14T16:44:32.568Z,101515.45
2019-04-14T16:47:04.328Z,101509.29
2019-04-14T16:49:36.032Z,101508.73
2019-04-14T16:52:26.376Z,101505.05
2019-04-14T16:55:19.556Z,101504.45
2019-04-14T16:58:08.969Z,101513.51
2019-04-14T17:00:43.506Z,101522.58
2019-04-14T17:03:15.276Z,101522.85
2019-04-14T17:05:47.371Z,101519.03
2019-04-14T17:08:20.097Z,101514.27
2019-04-14T17:10:51.808Z,101516.98
2019-04-14T17:13:25.065Z,101520.55
2019-04-14T17:16:15.684Z,101526.36
2019-04-14T17:19:01.956Z,101530.44
2019-04-14T17:22:06.504Z,101533.20
2019-04-14T17:24:55.910Z,101535.98
2019-04-14T17:27:46.172Z,101535.17
2019-04-14T17:30:28.710Z,101537.83
2019-04-14T17:33:13.367Z,101539.69
2019-04-14T17:36:23.665Z,101546.36
2019-04-14T17:39:17.982Z,101553.58
2019-04-14T17:42:00.779Z,101553.59
2019-04-14T17:44:47.579Z,101559.41
2019-04-14T17:47:44.930Z,101564.31
2019-04-14T17:50:40.496Z,101557.32
2019-04-14T17:53:38.917Z,101569.77
2019-04-14T17:56:30.820Z,101572.05
2019-04-14T17:59:34.074Z,101571.61
2019-04-14T18:02:16.223Z,101579.20
2019-04-14T18:05:12.607Z,101579.75
2019-04-14T18:08:08.726Z,101587.33
2019-04-14T18:10:58.674Z,101588.27
2019-04-14T18:13:47.959Z,101593.64
2019-04-14T18:16:35.413Z,101593.70
2019-04-14T18:19:19.609Z,101602.63
2019-04-14T18:21:51.729Z,101598.64
2019-04-14T18:24:23.968Z,101605.31
2019-04-14T18:26:56.063Z,101609.77
2019-04-14T18:29:49.726Z,101612.02
2019-04-14T18:32:46.346Z,101615.13
2019-04-14T18:35:30.911Z,101622.25
2019-04-14T18:38:29.487Z,101573.39
2019-04-14T18:41:21.355Z,101628.45
2019-04-14T18:44:14.901Z,101638.16
2019-04-14T18:46:59.828Z,101636.39
2019-04-14T18:49:49.446Z,101639.45
2019-04-14T18:52:45.475Z,101639.05
2019-04-14T18:55:28.583Z,101643.46
2019-04-14T18:58:27.798Z,101645.67
2019-04-14T19:01:19.294Z,101646.09
2019-04-14T19:03:51.577Z,101650.95
2019-04-14T19:06:23.857Z,101651.81
2019-04-14T19:08:55.956Z,101659.30
2019-04-14T19:11:53.356Z,101659.30
2019-04-14T19:14:29.271Z,101662.39
2019-04-14T19:17:07.298Z,101660.14
2019-04-14T19:19:40.430Z,101662.31
2019-04-14T19:22:13.225Z,101661.00
2019-04-14T19:24:44.452Z,101664.91
2019-04-14T19:27:15.636Z,101669.72
2019-04-14T19:29:46.949Z,101671.44
2019-04-14T19:32:18.781Z,101677.17
2019-04-14T19:34:50.698Z,101674.52
2019-04-14T19:37:22.720Z,101678.06
2019-04-14T19:39:54.041Z,101682.45
2019-04-14T19:42:25.382Z,101682.02
2019-04-14T19:44:57.217Z,101677.08
2019-04-14T19:47:28.483Z,101685.41
2019-04-14T19:50:00.391Z,101688.91
2019-04-14T19:52:32.299Z,101689.80
2019-04-14T19:55:05.270Z,101686.19
2019-04-14T19:57:37.691Z,101694.52
2019-04-14T20:00:11.139Z,101699.22
2019-04-14T20:02:43.033Z,101699.75
2019-04-14T20:05:15.286Z,101703.59
2019-04-14T20:07:47.179Z,101703.55
2019-04-14T20:10:18.606Z,101701.70
2019-04-14T20:12:50.446Z,101708.52
2019-04-14T20:15:31.822Z,101709.34
2019-04-14T20:18:17.019Z,101712.06
2019-04-14T20:21:05.945Z,101713.20
2019-04-14T20:23:45.857Z,101717.16
2019-04-14T20:26:39.870Z,101718.42
2019-04-14T20:29:17.475Z,101724.56
2019-04-14T20:31:55.133Z,101727.41
2019-04-14T20:34:28.126Z,101731.77
2019-04-14T20:37:00.096Z,101739.37
2019-04-14T20:39:32.531Z,101734.87
2019-04-14T20:42:05.458Z,101735.75
2019-04-14T20:44:36.885Z,101742.34
2019-04-14T20:47:09.595Z,101743.64
2019-04-14T20:49:40.816Z,101746.74
2019-04-14T20:52:12.020Z,101748.86
2019-04-14T20:54:43.934Z,101750.34
2019-04-14T20:57:15.835Z,101749.50
2019-04-14T20:59:47.056Z,101743.72
2019-04-14T21:02:46.654Z,101740.52
2019-04-14T21:05:39.734Z,101745.44
2019-04-14T21:08:43.647Z,101746.08
2019-04-14T21:11:25.228Z,101750.99
2019-04-14T21:14:18.142Z,101745.27
2019-04-14T21:17:08.204Z,101751.87
2019-04-14T21:19:53.930Z,101753.95
2019-04-14T21:22:34.362Z,101753.84
2019-04-14T21:25:37.431Z,101756.99
2019-04-14T21:28:21.963Z,101764.00
2019-04-14T21:31:15.580Z,101760.05
2019-04-14T21:33:59.999Z,101759.17
2019-04-14T21:37:08.583Z,101767.26
2019-04-14T21:39:54.101Z,101772.56
2019-04-14T21:42:25.386Z,101767.59
2019-04-14T21:44:58.684Z,101775.41
2019-04-14T21:47:30.629Z,101773.17
2019-04-14T21:50:02.613Z,101775.27
2019-04-14T21:52:40.300Z,101777.45
2019-04-14T21:55:12.858Z,101785.45
2019-04-14T21:57:52.217Z,101781.86
2019-04-14T22:01:40.619Z,101781.06
2019-04-14T22:04:23.555Z,101790.73
2019-04-14T22:06:56.335Z,101792.95
2019-04-14T22:09:32.796Z,101793.93
2019-04-14T22:12:06.424Z,101799.61
2019-04-14T22:14:37.673Z,101795.58
2019-04-14T22:17:09.506Z,101801.88
2019-04-14T22:19:41.340Z,101795.13
2019-04-14T22:22:13.264Z,101805.25
2019-04-14T22:24:45.334Z,101805.16
2019-04-14T22:27:17.299Z,101809.05
2019-04-14T22:29:48.488Z,101814.41
2019-04-14T22:32:20.289Z,101822.45
2019-04-14T22:34:52.239Z,101820.46
2019-04-14T22:37:24.185Z,101823.98
2019-04-14T22:39:56.116Z,101827.14
2019-04-14T22:42:27.990Z,101828.76
2019-04-14T22:44:59.169Z,101833.12
2019-04-14T22:47:31.002Z,101834.59
2019-04-14T22:50:02.865Z,101840.42
2019-04-14T22:52:34.716Z,101850.66
2019-04-14T22:55:07.494Z,101851.89
2019-04-14T22:57:39.403Z,101853.52
2019-04-14T23:00:15.065Z,101855.22
2019-04-14T23:03:00.657Z,101859.25
2019-04-14T23:05:50.176Z,101857.36
2019-04-14T23:08:34.965Z,101854.09
2019-04-14T23:11:24.177Z,101852.68
2019-04-14T23:14:13.651Z,101851.46
2019-04-14T23:17:03.104Z,101856.30
2019-04-14T23:19:40.314Z,101856.78
2019-04-14T23:22:22.761Z,101857.94
2019-04-14T23:24:54.663Z,101855.21
2019-04-14T23:27:26.526Z,101862.44
2019-04-14T23:29:58.385Z,101855.97
2019-04-14T23:32:30.307Z,101863.30
2019-04-14T23:35:02.115Z,101864.23
2019-04-14T23:37:33.959Z,101867.92
2019-04-14T23:40:06.441Z,101863.66
2019-04-14T23:42:38.270Z,101870.75
2019-04-14T23:45:10.465Z,101870.41
2019-04-14T23:47:41.614Z,101867.81
2019-04-14T23:50:13.613Z,101878.19
2019-04-14T23:52:45.396Z,101875.73
2019-04-14T23:55:16.592Z,101878.33
2019-04-14T23:57:48.515Z,101883.69
